EPLB

Details ICAO EPLB (LUZ)
Name Lublin
Region Poland
Timezone Europe/Warsaw (UTC+1.0)
Plans Departing 82
Arriving 63
Stats Elevation 633 ft / 193 m (AMSL)
Location 51.236345° 22.702508°
Runways 2
Magnetic Variation 6.073° E
Sunrise 2017-12-15 06:28:27 UTC / 2017-12-15 07:28:27 Local
Sunset 2017-12-15 14:22:58 UTC / 2017-12-15 15:22:58 Local
Advertisement - Login to hide

Runways

ID Width Length Bearing (true) Bearing (mag) Surface Threshold Offset Overrun Length
06 222 ft / 68 m 3,445 ft / 1,050 m 62.25° 56.18° Grass 0 ft / 0 m 0 ft / 0 m
07 148 ft / 45 m 8,277 ft / 2,523 m 77.06° 70.99° Asphalt 72 ft / 22 m 0 ft / 0 m
24 222 ft / 68 m 3,445 ft / 1,050 m 242.26° 236.19° Grass 0 ft / 0 m 0 ft / 0 m
25 148 ft / 45 m 8,277 ft / 2,523 m 257.09° 251.02° Asphalt 66 ft / 20 m 0 ft / 0 m

Map

Weather


0- 5 10 15 20 25 30 35+ Temperature / ° C

Clouds and Precipitation
Forecast for 2017-12-15 06:00 UTC. Updated 2 hours ago

Ground ~20,000 ft ~40,000 ft Winds

METAR

EPLB 150500Z 21010KT CAVOK 03/M00 Q1000

TAF

Not found

Frequencies

Tower 128.25 MHz LUBLIN TOWER
Warning: Do not use this data for real-world aviation or navigation. No guarantee of current accuracy is given.